createdAt,value
2018-12-04T00:00:43.621Z,0.70
2018-12-04T00:03:41.406Z,0.70
2018-12-04T00:06:38.530Z,1.33
2018-12-04T00:09:35.818Z,0.80
2018-12-04T00:12:35.347Z,0.70
2018-12-04T00:15:32.825Z,0.90
2018-12-04T00:18:30.352Z,0.70
2018-12-04T00:21:30.675Z,0.80
2018-12-04T00:24:28.872Z,0.85
2018-12-04T00:27:26.221Z,1.20
2018-12-04T00:30:26.866Z,0.93
2018-12-04T00:33:24.232Z,0.80
2018-12-04T00:36:21.657Z,0.90
2018-12-04T00:39:18.935Z,1.13
2018-12-04T00:42:16.557Z,0.80
2018-12-04T00:45:15.394Z,0.78
2018-12-04T00:48:12.872Z,0.93
2018-12-04T00:51:10.583Z,0.80
2018-12-04T00:54:08.568Z,1.30
2018-12-04T00:57:06.114Z,1.30
2018-12-04T01:00:04.680Z,1.00
2018-12-04T01:03:02.203Z,0.70
2018-12-04T01:05:59.259Z,0.90
2018-12-04T01:08:56.723Z,0.98
2018-12-04T01:11:54.081Z,0.70
2018-12-04T01:14:51.819Z,0.82
2018-12-04T01:17:49.706Z,0.90
2018-12-04T01:20:48.162Z,0.70
2018-12-04T01:23:45.458Z,0.70
2018-12-04T01:26:43.204Z,0.70
2018-12-04T01:29:40.954Z,0.60
2018-12-04T01:32:38.380Z,0.90
2018-12-04T01:35:35.870Z,0.72
2018-12-04T01:39:11.213Z,1.10
2018-12-04T01:41:53.599Z,0.70
2018-12-04T01:44:35.755Z,0.68
2018-12-04T01:47:19.452Z,0.70
2018-12-04T01:50:01.641Z,0.98
2018-12-04T01:52:44.508Z,1.00
2018-12-04T01:55:26.142Z,0.90
2018-12-04T01:58:08.252Z,0.82
2018-12-04T02:00:50.506Z,1.40
2018-12-04T02:03:33.426Z,1.00
2018-12-04T02:06:15.912Z,0.90
2018-12-04T02:08:58.088Z,0.90
2018-12-04T02:11:40.855Z,0.78
2018-12-04T02:14:22.689Z,0.80
2018-12-04T02:17:05.510Z,0.80
2018-12-04T02:19:47.464Z,1.10
2018-12-04T02:22:29.365Z,0.83
2018-12-04T02:25:11.739Z,0.98
2018-12-04T02:27:54.170Z,1.07
2018-12-04T02:30:36.300Z,1.00
2018-12-04T02:33:18.150Z,0.80
2018-12-04T02:35:59.833Z,1.00
2018-12-04T02:38:41.757Z,1.25
2018-12-04T02:41:24.753Z,1.00
2018-12-04T02:44:07.025Z,1.37
2018-12-04T02:46:49.059Z,1.20
2018-12-04T02:49:31.364Z,2.02
2018-12-04T02:52:14.046Z,1.42
2018-12-04T02:54:56.219Z,1.30
2018-12-04T02:57:37.777Z,1.23
2018-12-04T03:00:20.069Z,1.60
2018-12-04T03:03:02.171Z,1.42
2018-12-04T03:05:44.478Z,1.30
2018-12-04T03:08:27.323Z,1.12
2018-12-04T03:11:10.353Z,1.30
2018-12-04T03:13:52.358Z,1.03
2018-12-04T03:16:35.163Z,1.30
2018-12-04T03:19:17.334Z,1.40
2018-12-04T03:21:59.521Z,0.90
2018-12-04T03:24:41.304Z,1.57
2018-12-04T03:27:29.495Z,1.13
2018-12-04T03:30:12.059Z,1.30
2018-12-04T03:32:54.504Z,1.37
2018-12-04T03:35:36.731Z,1.20
2018-12-04T03:38:18.255Z,1.10
2018-12-04T03:41:01.666Z,1.47
2018-12-04T03:43:44.207Z,1.32
2018-12-04T03:46:25.813Z,1.30
2018-12-04T03:49:07.923Z,1.30
2018-12-04T03:51:50.500Z,1.22
2018-12-04T03:54:32.746Z,0.95
2018-12-04T03:57:14.813Z,1.30
2018-12-04T03:59:59.472Z,1.10
2018-12-04T04:02:41.217Z,1.12
2018-12-04T04:05:24.024Z,1.30
2018-12-04T04:08:07.264Z,1.32
2018-12-04T04:10:49.307Z,1.05
2018-12-04T04:13:31.423Z,1.60
2018-12-04T04:16:13.964Z,1.77
2018-12-04T04:18:56.167Z,1.47
2018-12-04T04:21:37.552Z,1.50
2018-12-04T04:24:20.106Z,1.37
2018-12-04T04:27:02.263Z,1.40
2018-12-04T04:29:44.084Z,1.27
2018-12-04T04:32:25.927Z,1.30
2018-12-04T04:35:09.912Z,1.12
2018-12-04T04:37:52.279Z,1.20
2018-12-04T04:40:33.984Z,0.80
2018-12-04T04:43:15.937Z,0.87
2018-12-04T04:45:58.131Z,0.95
2018-12-04T04:48:39.862Z,1.07
2018-12-04T04:51:22.231Z,1.10
2018-12-04T04:54:04.259Z,0.90
2018-12-04T04:56:46.545Z,0.80
2018-12-04T04:59:29.177Z,1.20
2018-12-04T05:02:11.411Z,1.47
2018-12-04T05:04:53.703Z,1.20
2018-12-04T05:07:36.168Z,1.40
2018-12-04T05:10:18.721Z,1.17
2018-12-04T05:13:01.078Z,0.98
2018-12-04T05:15:43.649Z,0.98
2018-12-04T05:18:25.623Z,1.03
2018-12-04T05:21:08.978Z,0.80
2018-12-04T05:23:51.213Z,0.97
2018-12-04T05:26:33.846Z,1.82
2018-12-04T05:29:17.364Z,1.10
2018-12-04T05:31:59.714Z,1.22
2018-12-04T05:34:41.833Z,1.20
2018-12-04T05:37:23.589Z,1.50
2018-12-04T05:40:07.224Z,1.90
2018-12-04T05:42:49.449Z,2.02
2018-12-04T05:45:31.300Z,2.20
2018-12-04T05:48:13.503Z,2.40
2018-12-04T05:50:55.306Z,2.02
2018-12-04T05:53:37.781Z,1.70
2018-12-04T05:56:20.529Z,1.57
2018-12-04T05:59:02.425Z,1.45
2018-12-04T06:01:44.348Z,1.42
2018-12-04T06:04:26.761Z,1.90
2018-12-04T06:07:08.937Z,1.70
2018-12-04T06:09:50.728Z,2.25
2018-12-04T06:12:33.011Z,1.62
2018-12-04T06:15:15.409Z,2.80
2018-12-04T06:17:57.939Z,2.08
2018-12-04T06:20:40.736Z,1.20
2018-12-04T06:23:23.513Z,1.87
2018-12-04T06:26:05.848Z,2.37
2018-12-04T06:28:48.121Z,1.70
2018-12-04T06:31:30.734Z,1.42
2018-12-04T06:34:13.087Z,1.92
2018-12-04T06:36:55.287Z,1.60
2018-12-04T06:39:37.337Z,1.72
2018-12-04T06:42:19.321Z,2.17
2018-12-04T06:45:03.996Z,2.00
2018-12-04T06:47:46.141Z,2.17
2018-12-04T06:50:28.086Z,2.00
2018-12-04T06:53:10.445Z,1.57
2018-12-04T06:55:53.219Z,1.90
2018-12-04T06:58:35.912Z,3.75
2018-12-04T07:01:18.216Z,5.22
2018-12-04T07:04:00.264Z,3.55
2018-12-04T07:06:42.853Z,2.70
2018-12-04T07:09:25.398Z,2.75
2018-12-04T07:12:07.632Z,1.95
2018-12-04T07:14:50.315Z,2.22
2018-12-04T07:17:32.063Z,2.12
2018-12-04T07:20:14.337Z,2.40
2018-12-04T07:22:57.158Z,2.30
2018-12-04T07:25:39.255Z,1.90
2018-12-04T07:28:20.895Z,1.80
2018-12-04T07:31:02.953Z,3.27
2018-12-04T07:33:45.534Z,2.50
2018-12-04T07:36:27.397Z,1.65
2018-12-04T07:39:09.854Z,1.98
2018-12-04T07:41:51.862Z,2.20
2018-12-04T07:44:33.667Z,4.10
2018-12-04T07:47:16.116Z,1.85
2018-12-04T07:49:58.275Z,2.47
2018-12-04T07:52:40.071Z,2.17
2018-12-04T07:55:21.859Z,2.22
2018-12-04T07:58:03.913Z,2.75
2018-12-04T08:00:45.805Z,2.33
2018-12-04T08:03:27.971Z,2.58
2018-12-04T08:06:11.949Z,3.15
2018-12-04T08:08:54.000Z,2.98
2018-12-04T08:11:36.339Z,2.60
2018-12-04T08:14:18.516Z,2.65
2018-12-04T08:17:00.696Z,2.47
2018-12-04T08:19:43.591Z,2.72
2018-12-04T08:22:25.765Z,3.72
2018-12-04T08:25:08.573Z,3.62
2018-12-04T08:27:50.999Z,3.92
2018-12-04T08:30:33.301Z,4.05
2018-12-04T08:33:15.964Z,4.25
2018-12-04T08:35:57.874Z,4.08
2018-12-04T08:38:39.798Z,3.95
2018-12-04T08:41:23.609Z,3.27
2018-12-04T08:44:06.234Z,3.52
2018-12-04T08:46:48.805Z,4.00
2018-12-04T08:49:31.389Z,4.33
2018-12-04T08:52:14.107Z,4.58
2018-12-04T08:54:55.886Z,5.33
2018-12-04T08:57:38.313Z,4.90
2018-12-04T09:00:20.679Z,4.50
2018-12-04T09:03:03.259Z,3.70
2018-12-04T09:05:45.443Z,3.47
2018-12-04T09:08:27.771Z,3.47
2018-12-04T09:11:10.952Z,3.67
2018-12-04T09:13:52.784Z,3.02
2018-12-04T09:16:34.634Z,2.90
2018-12-04T09:19:17.192Z,3.12
2018-12-04T09:21:59.900Z,2.75
2018-12-04T09:24:42.503Z,3.05
2018-12-04T09:27:24.719Z,2.40
2018-12-04T09:30:10.087Z,2.50
2018-12-04T09:32:52.641Z,1.80
2018-12-04T09:35:35.492Z,1.87
2018-12-04T09:38:17.441Z,1.45
2018-12-04T09:41:01.806Z,1.92
2018-12-04T09:43:51.240Z,2.05
2018-12-04T09:46:33.917Z,1.67
2018-12-04T09:49:15.754Z,1.60
2018-12-04T09:51:58.322Z,3.05
2018-12-04T09:54:40.568Z,1.82
2018-12-04T09:57:23.104Z,2.85
2018-12-04T10:00:08.347Z,3.45
2018-12-04T10:02:50.213Z,2.85
2018-12-04T10:05:32.780Z,2.92
2018-12-04T10:08:15.017Z,4.75
2018-12-04T10:10:56.984Z,3.37
2018-12-04T10:13:39.712Z,3.77
2018-12-04T10:16:22.613Z,4.53
2018-12-04T10:19:04.902Z,3.02
2018-12-04T10:21:46.874Z,3.50
2018-12-04T10:24:29.562Z,3.40
2018-12-04T10:27:11.796Z,3.47
2018-12-04T10:29:54.078Z,4.55
2018-12-04T10:32:36.416Z,2.92
2018-12-04T10:35:18.852Z,2.87
2018-12-04T10:38:01.241Z,2.85
2018-12-04T10:40:44.088Z,2.87
2018-12-04T10:43:26.509Z,3.12
2018-12-04T10:46:08.381Z,2.90
2018-12-04T10:48:50.316Z,6.85
2018-12-04T10:51:34.258Z,3.67
2018-12-04T10:54:17.365Z,2.80
2018-12-04T10:56:59.290Z,2.33
2018-12-04T10:59:41.148Z,2.60
2018-12-04T11:02:24.987Z,3.12
2018-12-04T11:05:07.941Z,2.70
2018-12-04T11:07:50.064Z,3.20
2018-12-04T11:10:32.272Z,2.83
2018-12-04T11:13:14.819Z,2.75
2018-12-04T11:15:56.343Z,2.40
2018-12-04T11:18:38.412Z,2.20
2018-12-04T11:21:20.106Z,2.80
2018-12-04T11:24:01.925Z,1.80
2018-12-04T11:26:44.232Z,2.70
2018-12-04T11:29:25.820Z,2.20
2018-12-04T11:32:08.297Z,2.17
2018-12-04T11:34:50.068Z,2.33
2018-12-04T11:37:31.885Z,2.90
2018-12-04T11:40:13.629Z,2.40
2018-12-04T11:42:55.507Z,2.53
2018-12-04T11:45:37.624Z,2.47
2018-12-04T11:48:19.518Z,1.90
2018-12-04T11:51:01.477Z,2.17
2018-12-04T11:53:43.692Z,2.07
2018-12-04T11:56:25.719Z,2.40
2018-12-04T11:59:07.381Z,2.53
2018-12-04T12:01:49.507Z,3.20
2018-12-04T12:04:31.274Z,2.70
2018-12-04T12:07:20.413Z,3.10
2018-12-04T12:09:59.044Z,2.75
2018-12-04T12:12:41.785Z,2.67
2018-12-04T12:15:24.286Z,2.22
2018-12-04T12:18:07.668Z,2.22
2018-12-04T12:20:49.577Z,2.00
2018-12-04T12:23:31.465Z,2.45
2018-12-04T12:26:13.817Z,2.80
2018-12-04T12:28:56.943Z,2.70
2018-12-04T12:31:39.825Z,2.37
2018-12-04T12:34:23.533Z,2.58
2018-12-04T12:37:06.753Z,2.10
2018-12-04T12:39:48.968Z,2.17
2018-12-04T12:42:32.265Z,2.37
2018-12-04T12:45:14.479Z,2.45
2018-12-04T12:47:56.585Z,2.90
2018-12-04T12:50:39.489Z,2.20
2018-12-04T12:53:21.280Z,2.72
2018-12-04T12:56:03.446Z,2.62
2018-12-04T12:58:45.947Z,2.20
2018-12-04T13:01:27.918Z,1.45
2018-12-04T13:04:10.877Z,2.65
2018-12-04T13:06:53.688Z,1.85
2018-12-04T13:09:36.015Z,1.77
2018-12-04T13:12:18.810Z,1.52
2018-12-04T13:15:00.605Z,1.67
2018-12-04T13:17:42.460Z,1.80
2018-12-04T13:20:24.309Z,1.37
2018-12-04T13:23:06.404Z,1.45
2018-12-04T13:25:48.449Z,1.70
2018-12-04T13:28:30.555Z,2.20
2018-12-04T13:31:13.352Z,2.22
2018-12-04T13:33:56.433Z,1.77
2018-12-04T13:36:38.809Z,1.62
2018-12-04T13:39:21.346Z,2.60
2018-12-04T13:42:03.557Z,2.27
2018-12-04T13:44:45.426Z,2.20
2018-12-04T13:47:27.872Z,1.67
2018-12-04T13:50:10.851Z,2.00
2018-12-04T13:52:52.918Z,2.52
2018-12-04T13:55:34.789Z,2.15
2018-12-04T13:58:16.777Z,2.08
2018-12-04T14:00:59.189Z,2.55
2018-12-04T14:03:42.379Z,1.95
2018-12-04T14:06:24.569Z,2.20
2018-12-04T14:09:08.371Z,2.40
2018-12-04T14:11:50.615Z,2.25
2018-12-04T14:14:32.868Z,2.10
2018-12-04T14:17:15.173Z,1.98
2018-12-04T14:19:57.833Z,2.05
2018-12-04T14:22:39.912Z,2.22
2018-12-04T14:25:21.789Z,3.05
2018-12-04T14:28:03.853Z,2.70
2018-12-04T14:30:45.824Z,1.90
2018-12-04T14:33:28.009Z,2.27
2018-12-04T14:36:10.835Z,2.27
2018-12-04T14:38:52.608Z,3.05
2018-12-04T14:41:34.494Z,2.52
2018-12-04T14:44:17.209Z,2.45
2018-12-04T14:46:59.798Z,2.12
2018-12-04T14:49:41.715Z,2.47
2018-12-04T14:52:23.726Z,2.35
2018-12-04T14:55:08.915Z,3.55
2018-12-04T14:57:52.211Z,2.10
2018-12-04T15:00:34.347Z,2.27
2018-12-04T15:03:17.112Z,2.35
2018-12-04T15:05:59.853Z,2.42
2018-12-04T15:08:43.502Z,2.42
2018-12-04T15:11:25.948Z,2.15
2018-12-04T15:14:08.815Z,3.02
2018-12-04T15:16:55.004Z,2.52
2018-12-04T15:19:35.286Z,3.40
2018-12-04T15:22:17.481Z,3.15
2018-12-04T15:25:00.262Z,3.27
2018-12-04T15:27:42.840Z,2.30
2018-12-04T15:30:25.954Z,2.70
2018-12-04T15:33:08.149Z,2.33
2018-12-04T15:35:50.726Z,2.12
2018-12-04T15:38:32.723Z,4.25
2018-12-04T15:41:15.151Z,2.47
2018-12-04T15:43:57.614Z,2.27
2018-12-04T15:46:39.907Z,2.80
2018-12-04T15:49:22.417Z,3.10
2018-12-04T15:52:05.025Z,3.58
2018-12-04T15:54:47.129Z,2.35
2018-12-04T15:57:29.093Z,2.20
2018-12-04T16:00:12.215Z,2.60
2018-12-04T16:02:55.982Z,2.30
2018-12-04T16:05:37.899Z,2.87
2018-12-04T16:08:21.530Z,2.45
2018-12-04T16:11:20.101Z,2.55
2018-12-04T16:14:01.898Z,2.55
2018-12-04T16:16:44.588Z,3.10
2018-12-04T16:19:27.043Z,3.10
2018-12-04T16:22:09.672Z,2.27
2018-12-04T16:25:05.257Z,2.50
2018-12-04T16:28:01.568Z,2.35
2018-12-04T16:30:46.165Z,2.85
2018-12-04T16:33:28.680Z,2.65
2018-12-04T16:36:11.072Z,2.67
2018-12-04T16:38:53.577Z,2.72
2018-12-04T16:41:36.052Z,3.12
2018-12-04T16:44:18.903Z,2.75
2018-12-04T16:47:01.081Z,3.62
2018-12-04T16:49:43.169Z,3.33
2018-12-04T16:52:25.704Z,3.50
2018-12-04T16:55:08.609Z,3.42
2018-12-04T16:57:51.246Z,3.17
2018-12-04T17:00:35.266Z,3.30
2018-12-04T17:03:17.323Z,2.80
2018-12-04T17:06:02.280Z,2.77
2018-12-04T17:08:44.776Z,5.12
2018-12-04T17:11:27.218Z,2.80
2018-12-04T17:14:09.678Z,3.02
2018-12-04T17:16:51.987Z,2.15
2018-12-04T17:19:35.016Z,2.30
2018-12-04T17:22:19.328Z,2.30
2018-12-04T17:25:01.815Z,1.98
2018-12-04T17:30:33.119Z,2.37
2018-12-04T17:33:15.637Z,2.67
2018-12-04T17:35:59.642Z,3.00
2018-12-04T17:38:42.206Z,2.47
2018-12-04T17:41:24.873Z,3.02
2018-12-04T17:44:08.125Z,2.40
2018-12-04T17:46:50.804Z,2.50
2018-12-04T17:49:36.185Z,2.47
2018-12-04T17:52:19.264Z,2.33
2018-12-04T17:55:02.855Z,2.60
2018-12-04T17:57:47.739Z,2.20
2018-12-04T18:00:30.391Z,2.87
2018-12-04T18:03:14.229Z,2.62
2018-12-04T18:05:57.246Z,2.60
2018-12-04T18:08:41.974Z,3.05
2018-12-04T18:11:25.798Z,2.77
2018-12-04T18:14:09.038Z,2.80
2018-12-04T18:16:52.103Z,2.98
2018-12-04T18:19:35.843Z,4.05
2018-12-04T18:22:20.790Z,3.58
2018-12-04T18:25:02.748Z,3.58
2018-12-04T18:27:46.007Z,3.25
2018-12-04T18:30:29.128Z,3.58
2018-12-04T18:33:11.509Z,3.47
2018-12-04T18:35:53.920Z,3.55
2018-12-04T18:38:36.352Z,3.50
2018-12-04T18:41:19.794Z,2.87
2018-12-04T18:44:02.966Z,2.90
2018-12-04T18:46:44.780Z,3.25
2018-12-04T18:49:26.687Z,4.35
2018-12-04T18:52:08.997Z,3.85
2018-12-04T18:54:51.995Z,4.40
2018-12-04T18:57:34.529Z,4.65
2018-12-04T19:00:16.941Z,4.35
2018-12-04T19:02:59.343Z,5.35
2018-12-04T19:05:42.735Z,3.60
2018-12-04T19:08:37.000Z,4.37
2018-12-04T19:11:19.205Z,4.72
2018-12-04T19:14:00.987Z,3.95
2018-12-04T19:16:42.870Z,4.05
2018-12-04T19:19:25.546Z,4.03
2018-12-04T19:22:08.347Z,3.27
2018-12-04T19:24:50.140Z,3.33
2018-12-04T19:27:32.893Z,3.05
2018-12-04T19:30:16.948Z,3.20
2018-12-04T19:32:58.940Z,2.90
2018-12-04T19:35:41.933Z,2.95
2018-12-04T19:38:24.228Z,2.90
2018-12-04T19:41:06.277Z,2.40
2018-12-04T19:43:48.533Z,2.98
2018-12-04T19:46:31.249Z,2.60
2018-12-04T19:49:13.291Z,2.65
2018-12-04T19:51:55.748Z,2.72
2018-12-04T19:54:37.844Z,2.90
2018-12-04T19:57:19.842Z,2.83
2018-12-04T20:00:01.901Z,2.30
2018-12-04T20:02:44.309Z,3.12
2018-12-04T20:05:26.788Z,2.52
2018-12-04T20:08:09.317Z,2.85
2018-12-04T20:10:51.396Z,2.40
2018-12-04T20:13:34.013Z,2.75
2018-12-04T20:16:17.212Z,2.52
2018-12-04T20:18:59.327Z,2.35
2018-12-04T20:21:42.306Z,2.52
2018-12-04T20:24:24.288Z,2.60
2018-12-04T20:27:06.450Z,2.33
2018-12-04T20:29:48.843Z,2.52
2018-12-04T20:32:30.756Z,2.72
2018-12-04T20:35:13.495Z,2.75
2018-12-04T20:37:55.353Z,2.65
2018-12-04T20:40:37.742Z,3.37
2018-12-04T20:43:19.639Z,2.52
2018-12-04T20:46:05.886Z,2.55
2018-12-04T20:48:46.104Z,2.50
2018-12-04T20:51:28.487Z,2.35
2018-12-04T20:54:10.635Z,2.50
2018-12-04T20:56:53.737Z,2.67
2018-12-04T20:59:36.381Z,2.75
2018-12-04T21:02:19.147Z,2.42
2018-12-04T21:05:01.237Z,2.75
2018-12-04T21:07:43.940Z,2.92
2018-12-04T21:10:25.910Z,2.92
2018-12-04T21:13:14.282Z,2.75
2018-12-04T21:15:53.716Z,2.70
2018-12-04T21:18:35.656Z,3.22
2018-12-04T21:21:17.919Z,2.67
2018-12-04T21:24:00.487Z,2.83
2018-12-04T21:26:42.875Z,3.10
2018-12-04T21:31:39.955Z,3.30
2018-12-04T21:34:26.579Z,3.00
2018-12-04T21:37:13.779Z,2.87
2018-12-04T21:40:01.328Z,2.98
2018-12-04T21:42:49.365Z,2.60
2018-12-04T21:45:37.028Z,2.90
2018-12-04T21:48:21.381Z,2.75
2018-12-04T21:51:03.863Z,2.60
2018-12-04T21:53:45.723Z,2.90
2018-12-04T21:56:27.734Z,2.98
2018-12-04T21:59:10.428Z,2.70
2018-12-04T22:01:53.056Z,2.50
2018-12-04T22:04:35.357Z,2.72
2018-12-04T22:07:18.053Z,2.92
2018-12-04T22:10:00.420Z,2.77
2018-12-04T22:12:42.297Z,3.22
2018-12-04T22:15:24.644Z,3.10
2018-12-04T22:18:08.375Z,2.80
2018-12-04T22:20:51.739Z,3.00
2018-12-04T22:23:34.123Z,2.40
2018-12-04T22:26:16.485Z,3.27
2018-12-04T22:28:58.654Z,3.20
2018-12-04T22:31:40.628Z,3.17
2018-12-04T22:34:22.512Z,2.52
2018-12-04T22:37:05.301Z,2.80
2018-12-04T22:39:47.222Z,2.55
2018-12-04T22:42:30.530Z,3.02
2018-12-04T22:45:18.040Z,3.05
2018-12-04T22:48:01.070Z,2.55
2018-12-04T22:50:43.425Z,3.00
2018-12-04T22:53:25.321Z,2.80
2018-12-04T22:56:07.923Z,3.75
2018-12-04T22:58:49.998Z,3.00
2018-12-04T23:01:41.569Z,3.92
2018-12-04T23:04:23.530Z,6.30
2018-12-04T23:07:05.665Z,3.27
2018-12-04T23:09:48.320Z,6.10
2018-12-04T23:12:31.071Z,3.22
2018-12-04T23:15:13.286Z,3.47
2018-12-04T23:17:55.669Z,4.37
2018-12-04T23:20:37.589Z,2.90
2018-12-04T23:23:19.752Z,2.98
2018-12-04T23:26:01.540Z,3.25
2018-12-04T23:28:43.386Z,3.98
2018-12-04T23:31:25.496Z,3.27
2018-12-04T23:34:07.382Z,3.05
2018-12-04T23:36:49.481Z,2.45
2018-12-04T23:39:31.795Z,3.22
2018-12-04T23:42:13.966Z,2.87
2018-12-04T23:44:56.273Z,3.12
2018-12-04T23:47:38.111Z,2.60
2018-12-04T23:50:20.030Z,2.65
2018-12-04T23:53:02.368Z,3.15
2018-12-04T23:55:44.789Z,3.80
2018-12-04T23:58:26.740Z,2.87
